Time;durP1;ratioP1;P1;durP2;ratioP2;P2;SDS_P1;SDS_P2;PMS_P1;PMS_P2;Temp;Humidity;BMP_temperature;BMP_pressure;BME280_temperature;BME280_humidity;BME280_pressure;Samples;Min_cycle;Max_cycle;Signal;HPM_P1;HPM_P2
2023/12/30 00:01:55;;;;;;;5.78;1.33;;;;;;;5.53;100.00;100687.28;5072280;28;20101;-58
2023/12/30 00:04:23;;;;;;;5.43;1.10;;;;;;;5.49;100.00;100698.75;5070804;28;20059;-58
2023/12/30 00:06:51;;;;;;;5.88;1.20;;;;;;;5.46;100.00;100698.91;5071383;28;20413;-57
2023/12/30 00:09:21;;;;;;;5.60;1.15;;;;;;;5.42;100.00;100692.97;5067311;28;20052;-58
2023/12/30 00:11:49;;;;;;;2.72;0.70;;;;;;;5.40;100.00;100692.22;5070039;28;20486;-58
2023/12/30 00:14:20;;;;;;;5.20;1.20;;;;;;;5.37;100.00;100687.16;5070679;28;20076;-58
2023/12/30 00:16:51;;;;;;;6.72;1.10;;;;;;;5.36;100.00;100705.50;5071817;28;20353;-58
2023/12/30 00:19:20;;;;;;;6.60;1.23;;;;;;;5.33;100.00;100705.59;5071751;28;20102;-58
2023/12/30 00:21:51;;;;;;;4.90;0.90;;;;;;;5.34;100.00;100704.69;5071864;28;20422;-58
2023/12/30 00:24:21;;;;;;;3.72;1.08;;;;;;;5.29;100.00;100704.06;5071949;28;20082;-57
2023/12/30 00:26:51;;;;;;;5.00;1.05;;;;;;;5.29;100.00;100711.88;5071527;28;20049;-57
2023/12/30 00:29:19;;;;;;;6.13;1.00;;;;;;;5.21;100.00;100713.06;5071470;28;20053;-58
2023/12/30 00:31:47;;;;;;;5.40;1.05;;;;;;;5.19;100.00;100722.72;5071433;28;20393;-58
2023/12/30 00:34:15;;;;;;;6.07;1.20;;;;;;;5.16;100.00;100727.22;5071800;28;20040;-57
2023/12/30 00:36:44;;;;;;;10.43;1.60;;;;;;;5.13;100.00;100737.81;5071946;28;20091;-58
2023/12/30 00:39:12;;;;;;;5.53;1.30;;;;;;;5.12;100.00;100734.34;5071863;28;20041;-58
2023/12/30 00:41:42;;;;;;;4.70;1.23;;;;;;;5.12;100.00;100742.16;5073455;28;20048;-57
2023/12/30 00:44:10;;;;;;;7.57;1.30;;;;;;;5.11;100.00;100742.22;5075270;28;20052;-58
2023/12/30 00:46:38;;;;;;;8.35;2.00;;;;;;;5.05;100.00;100740.75;5075502;28;20040;-57
2023/12/30 00:49:08;;;;;;;9.90;1.77;;;;;;;5.06;100.00;100743.28;5075788;28;20060;-58
2023/12/30 00:51:37;;;;;;;9.75;1.70;;;;;;;5.05;100.00;100744.19;5075460;28;20059;-58
2023/12/30 00:54:05;;;;;;;7.30;1.60;;;;;;;5.02;100.00;100741.72;5075730;28;20189;-58
2023/12/30 00:56:35;;;;;;;9.73;1.67;;;;;;;5.00;100.00;100740.09;5075193;28;20048;-58
2023/12/30 00:59:05;;;;;;;8.93;1.90;;;;;;;4.99;100.00;100741.84;5071275;28;20048;-57
2023/12/30 01:01:34;;;;;;;7.07;1.33;;;;;;;5.01;100.00;100747.00;5071566;28;20127;-58
2023/12/30 01:04:02;;;;;;;9.15;1.75;;;;;;;5.02;100.00;100751.31;5071774;28;20139;-57
2023/12/30 01:06:31;;;;;;;8.85;1.52;;;;;;;5.00;100.00;100751.34;5073799;28;20479;-57
2023/12/30 01:09:00;;;;;;;7.28;1.25;;;;;;;4.99;100.00;100756.63;5075152;28;20096;-58
2023/12/30 01:11:28;;;;;;;7.47;1.38;;;;;;;4.96;100.00;100757.59;5074919;28;20080;-57
2023/12/30 01:13:57;;;;;;;8.30;1.40;;;;;;;4.94;100.00;100756.00;5075097;28;20048;-58
2023/12/30 01:16:26;;;;;;;9.18;2.08;;;;;;;4.92;100.00;100753.44;5073857;28;20052;-58
2023/12/30 01:18:55;;;;;;;9.95;1.50;;;;;;;4.90;100.00;100761.31;5071878;28;20063;-58
2023/12/30 01:21:23;;;;;;;10.95;1.90;;;;;;;4.90;100.00;100761.31;5071794;28;20045;-58
2023/12/30 01:23:51;;;;;;;10.20;1.75;;;;;;;4.94;100.00;100766.44;5074534;28;20507;-58
2023/12/30 01:26:19;;;;;;;9.90;1.58;;;;;;;4.89;100.00;100770.09;5075003;28;20098;-58
2023/12/30 01:28:48;;;;;;;8.80;1.60;;;;;;;4.88;100.00;100771.00;5074803;28;20102;-58
2023/12/30 01:31:18;;;;;;;7.20;1.27;;;;;;;4.89;100.00;100764.88;5074886;28;20048;-57
2023/12/30 01:33:48;;;;;;;11.25;1.75;;;;;;;4.94;100.00;100763.81;5074909;28;20056;-58
2023/12/30 01:36:17;;;;;;;7.30;1.58;;;;;;;4.89;100.00;100764.88;5074899;28;20123;-57
2023/12/30 01:38:45;;;;;;;7.88;1.35;;;;;;;4.89;100.00;100769.22;5073428;28;20087;-58
2023/12/30 01:41:15;;;;;;;7.88;1.33;;;;;;;4.88;100.00;100768.38;5074891;28;20483;-57
2023/12/30 01:43:45;;;;;;;5.00;1.20;;;;;;;4.89;100.00;100770.09;5073553;28;20071;-58
2023/12/30 01:46:14;;;;;;;7.45;1.30;;;;;;;4.87;100.00;100774.50;5074670;28;20050;-57
2023/12/30 01:48:42;;;;;;;12.18;1.75;;;;;;;4.89;100.00;100780.50;5074491;28;20045;-58
2023/12/30 01:51:13;;;;;;;10.07;1.55;;;;;;;4.89;100.00;100785.72;5074346;28;20057;-58
2023/12/30 01:53:54;;;;;;;8.65;1.75;;;;;;;4.88;100.00;100784.00;5072692;28;20051;-58
2023/12/30 01:56:25;;;;;;;9.38;1.60;;;;;;;4.90;100.00;100786.56;5071210;28;20806;-57
2023/12/30 01:58:57;;;;;;;9.57;1.20;;;;;;;4.89;100.00;100798.75;5072904;28;20055;-58
2023/12/30 02:01:27;;;;;;;16.73;2.30;;;;;;;4.93;100.00;100796.84;5073980;28;20044;-58
2023/12/30 02:03:56;;;;;;;8.00;1.65;;;;;;;4.93;100.00;100796.00;5072668;28;20119;-58
2023/12/30 02:06:26;;;;;;;8.27;1.60;;;;;;;4.93;100.00;100796.00;5070792;28;20053;-57
2023/12/30 02:08:54;;;;;;;7.32;1.50;;;;;;;4.94;100.00;100802.91;5072225;28;20044;-58
2023/12/30 02:11:23;;;;;;;11.02;1.60;;;;;;;4.94;100.00;100808.13;5073555;28;20048;-57
2023/12/30 02:13:51;;;;;;;4.60;1.30;;;;;;;4.91;100.00;100812.53;5073567;28;20048;-58
2023/12/30 02:16:19;;;;;;;9.20;1.65;;;;;;;4.92;100.00;100813.38;5073997;28;20049;-58
2023/12/30 02:18:47;;;;;;;10.27;1.92;;;;;;;4.91;100.00;100804.72;5074091;28;20049;-57
2023/12/30 02:21:15;;;;;;;13.48;2.05;;;;;;;4.93;100.00;100809.03;5072129;28;20500;-57
2023/12/30 02:23:52;;;;;;;10.27;2.22;;;;;;;4.91;100.00;100817.75;5070598;28;20059;-58
2023/12/30 02:26:21;;;;;;;9.07;1.73;;;;;;;4.98;100.00;100818.34;5073434;28;20064;-58
2023/12/30 02:28:49;;;;;;;10.80;1.80;;;;;;;4.96;100.00;100814.94;5073695;28;20044;-57
2023/12/30 02:31:17;;;;;;;11.55;2.25;;;;;;;4.94;100.00;100813.34;5073626;28;20064;-49
2023/12/30 02:33:45;;;;;;;13.73;1.90;;;;;;;4.98;100.00;100815.75;5073743;28;20048;-46
2023/12/30 02:36:13;;;;;;;9.45;1.92;;;;;;;4.98;100.00;100807.94;5073443;28;20109;-46
2023/12/30 02:38:42;;;;;;;9.85;1.77;;;;;;;5.01;100.00;100810.41;5073486;28;20466;-46
2023/12/30 02:41:11;;;;;;;12.57;1.77;;;;;;;5.01;100.00;100820.00;5073593;28;20125;-46
2023/12/30 02:43:51;;;;;;;13.32;2.22;;;;;;;5.04;100.00;100814.63;5073623;28;20443;-47
2023/12/30 02:46:22;;;;;;;10.80;2.00;;;;;;;5.03;100.00;100813.81;5073760;28;20071;-47
2023/12/30 02:48:50;;;;;;;13.15;2.20;;;;;;;5.07;100.00;100823.19;5073367;28;20040;-58
2023/12/30 02:51:19;;;;;;;9.38;1.50;;;;;;;5.08;100.00;100813.59;5070091;28;20112;-46
2023/12/30 02:53:48;;;;;;;9.70;2.05;;;;;;;5.07;100.00;100822.31;5070311;28;20052;-58
2023/12/30 02:56:21;;;;;;;7.60;1.38;;;;;;;5.08;100.00;100816.19;5073064;28;20053;-57
2023/12/30 02:58:51;;;;;;;9.15;1.48;;;;;;;5.05;100.00;100826.75;5071208;28;20147;-57
2023/12/30 03:01:19;;;;;;;7.55;1.40;;;;;;;5.13;100.00;100832.50;5069375;28;20125;-46
2023/12/30 03:03:47;;;;;;;9.65;1.60;;;;;;;5.10;100.00;100834.38;5071654;28;20507;-47
2023/12/30 03:06:16;;;;;;;7.57;1.83;;;;;;;5.13;100.00;100831.66;5072675;28;20044;-48
2023/12/30 03:08:44;;;;;;;11.50;1.55;;;;;;;5.10;100.00;100830.03;5073076;28;20048;-46
2023/12/30 03:11:12;;;;;;;8.00;1.45;;;;;;;5.08;100.00;100834.44;5071622;28;20048;-47
2023/12/30 03:13:42;;;;;;;10.73;1.83;;;;;;;5.11;100.00;100836.09;5072723;28;20567;-47
2023/12/30 03:16:13;;;;;;;10.80;2.00;;;;;;;5.10;100.00;100835.25;5072719;28;20044;-47
2023/12/30 03:18:42;;;;;;;12.75;1.67;;;;;;;5.11;100.00;100841.28;5072853;28;20056;-47
2023/12/30 03:21:13;;;;;;;8.27;1.45;;;;;;;5.11;100.00;100834.31;5072698;28;20048;-46
2023/12/30 03:23:42;;;;;;;8.13;1.75;;;;;;;5.10;100.00;100840.47;5072672;28;20131;-49
2023/12/30 03:26:10;;;;;;;12.40;2.35;;;;;;;5.08;100.00;100840.53;5071325;28;20090;-46
2023/12/30 03:28:39;;;;;;;16.50;2.45;;;;;;;5.06;100.00;100837.13;5072394;28;20044;-46
2023/12/30 03:31:08;;;;;;;5.95;1.40;;;;;;;5.10;100.00;100832.63;5072273;28;20060;-48
2023/12/30 03:33:37;;;;;;;6.90;1.20;;;;;;;5.09;100.00;100836.16;5071049;28;20045;-46
2023/12/30 03:36:05;;;;;;;8.68;1.40;;;;;;;5.08;100.00;100839.66;5072422;28;20509;-45
2023/12/30 03:38:33;;;;;;;9.98;1.33;;;;;;;5.07;100.00;100840.56;5072380;28;20127;-46
2023/12/30 03:41:01;;;;;;;14.15;2.10;;;;;;;5.08;100.00;100843.13;5072143;28;20054;-49
2023/12/30 03:43:30;;;;;;;6.75;1.35;;;;;;;5.13;100.00;100844.69;5072143;28;20041;-46
2023/12/30 03:45:58;;;;;;;9.68;1.92;;;;;;;5.13;100.00;100849.91;5072048;28;20048;-46
2023/12/30 03:48:30;;;;;;;6.88;1.45;;;;;;;5.12;100.00;100849.06;5072407;28;20124;-46
2023/12/30 03:50:58;;;;;;;12.20;1.92;;;;;;;5.12;100.00;100849.06;5072042;28;20044;-47
2023/12/30 03:53:26;;;;;;;11.75;1.38;;;;;;;5.12;100.00;100854.25;5071923;28;20036;-46
2023/12/30 03:55:54;;;;;;;5.43;1.20;;;;;;;5.10;100.00;100855.22;5071642;28;20048;-48
2023/12/30 03:58:23;;;;;;;14.23;2.13;;;;;;;5.08;100.00;100852.69;5067687;28;20502;-46
2023/12/30 04:00:51;;;;;;;12.57;2.17;;;;;;;5.11;100.00;100852.56;5069492;28;20068;-46
2023/12/30 04:03:19;;;;;;;10.27;1.40;;;;;;;5.11;100.00;100855.16;5071570;28;20124;-47
2023/12/30 04:05:50;;;;;;;11.07;1.40;;;;;;;5.10;100.00;100850.88;5071363;28;20059;-46
2023/12/30 04:08:18;;;;;;;11.93;1.65;;;;;;;5.09;100.00;100849.19;5071452;28;20584;-46
2023/12/30 04:10:46;;;;;;;10.57;1.73;;;;;;;5.08;100.00;100855.31;5069819;28;20578;-45
2023/12/30 04:13:15;;;;;;;10.73;1.67;;;;;;;5.11;100.00;100855.16;5066836;28;20551;-45
2023/12/30 04:15:43;;;;;;;12.98;1.88;;;;;;;5.10;100.00;100852.63;5069418;28;20044;-47
2023/12/30 04:18:11;;;;;;;10.40;1.85;;;;;;;5.11;100.00;100860.38;5071835;28;20428;-46
2023/12/30 04:20:40;;;;;;;11.65;1.60;;;;;;;5.07;100.00;100854.47;5071751;28;20045;-47
2023/12/30 04:23:09;;;;;;;8.77;1.52;;;;;;;5.06;100.00;100860.59;5071562;28;20064;-45
2023/12/30 04:25:37;;;;;;;12.30;1.83;;;;;;;5.03;100.00;100858.13;5071515;28;20045;-46
2023/12/30 04:28:06;;;;;;;11.52;1.60;;;;;;;5.05;100.00;100858.03;5071543;28;20110;-47
2023/12/30 04:30:34;;;;;;;10.88;2.00;;;;;;;5.04;100.00;100861.56;5071545;28;20110;-45
2023/12/30 04:33:03;;;;;;;13.23;1.75;;;;;;;5.04;100.00;100856.34;5070243;28;20040;-47
2023/12/30 04:35:31;;;;;;;9.38;1.92;;;;;;;5.05;100.00;100864.09;5071426;28;20040;-47
2023/12/30 04:37:59;;;;;;;8.23;1.58;;;;;;;5.05;100.00;100868.47;5071482;28;20059;-48
2023/12/30 04:40:29;;;;;;;9.60;1.83;;;;;;;5.00;100.00;100870.41;5071848;28;20052;-47
2023/12/30 04:42:57;;;;;;;9.15;1.48;;;;;;;4.97;100.00;100867.94;5071562;28;20079;-45
2023/12/30 04:45:26;;;;;;;10.57;1.80;;;;;;;4.96;100.00;100871.47;5071648;28;20484;-46
2023/12/30 04:47:54;;;;;;;13.98;2.33;;;;;;;4.96;100.00;100880.13;5071354;28;20057;-47
2023/12/30 04:50:25;;;;;;;9.68;1.80;;;;;;;5.00;100.00;100880.84;5071717;28;20049;-45
2023/12/30 04:52:53;;;;;;;9.85;1.80;;;;;;;5.00;100.00;100880.84;5071313;28;20052;-46
2023/12/30 04:55:21;;;;;;;11.57;1.70;;;;;;;4.99;100.00;100882.63;5071439;28;20054;-45
2023/12/30 04:57:51;;;;;;;9.40;1.70;;;;;;;5.00;100.00;100880.84;5071395;28;20049;-46
2023/12/30 05:00:19;;;;;;;9.95;1.70;;;;;;;5.02;100.00;100876.44;5068012;28;20057;-46
2023/12/30 05:02:51;;;;;;;9.57;1.67;;;;;;;4.99;100.00;100879.13;5066987;28;20059;-48
2023/12/30 05:05:19;;;;;;;9.65;1.70;;;;;;;4.99;100.00;100876.53;5069407;28;20704;-46
2023/12/30 05:07:47;;;;;;;10.02;1.60;;;;;;;4.98;100.00;100878.31;5068368;28;20114;-46
2023/12/30 05:10:15;;;;;;;9.07;1.42;;;;;;;4.99;100.00;100881.75;5068038;28;20045;-46
2023/12/30 05:12:47;;;;;;;11.98;1.85;;;;;;;4.99;100.00;100886.97;5070456;28;20055;-47
2023/12/30 05:15:17;;;;;;;15.30;2.58;;;;;;;4.98;100.00;100888.72;5071346;28;20045;-47
2023/12/30 05:17:45;;;;;;;9.43;2.15;;;;;;;4.98;100.00;100882.69;5070903;28;20548;-47
2023/12/30 05:20:16;;;;;;;14.77;1.92;;;;;;;5.00;100.00;100891.28;5069846;28;20043;-48
2023/12/30 05:22:45;;;;;;;8.43;1.60;;;;;;;4.98;100.00;100890.50;5071184;28;20056;-48
2023/12/30 05:25:13;;;;;;;15.07;2.00;;;;;;;4.97;100.00;100894.00;5070970;28;20074;-46
2023/12/30 05:27:42;;;;;;;11.45;2.13;;;;;;;4.97;100.00;100891.41;5072754;28;20072;-46
2023/12/30 05:30:10;;;;;;;15.48;2.25;;;;;;;4.95;100.00;100894.06;5075063;28;20411;-48
2023/12/30 05:32:40;;;;;;;9.75;1.75;;;;;;;4.92;100.00;100899.41;5074346;28;20518;-45
2023/12/30 05:35:08;;;;;;;11.10;2.00;;;;;;;4.89;100.00;100891.72;5074176;28;20044;-46
2023/12/30 05:37:37;;;;;;;10.45;1.90;;;;;;;4.88;100.00;100903.91;5074142;28;20040;-45
2023/12/30 05:40:07;;;;;;;13.27;2.33;;;;;;;4.87;100.00;100914.41;5073376;28;20048;-47
2023/12/30 05:42:35;;;;;;;11.45;2.05;;;;;;;4.91;100.00;100908.97;5069999;28;20048;-48
2023/12/30 05:45:06;;;;;;;7.68;1.73;;;;;;;4.91;100.00;100916.81;5072082;28;20105;-46
2023/12/30 05:47:34;;;;;;;15.35;2.58;;;;;;;4.89;100.00;100916.03;5074415;28;20048;-48
2023/12/30 05:50:04;;;;;;;14.15;1.98;;;;;;;4.87;100.00;100923.03;5074450;28;20130;-46
2023/12/30 05:52:32;;;;;;;10.32;1.70;;;;;;;4.85;100.00;100924.88;5072890;28;20572;-47
2023/12/30 05:55:00;;;;;;;11.00;2.20;;;;;;;4.86;100.00;100926.56;5074171;28;20044;-46
2023/12/30 05:57:29;;;;;;;11.27;1.95;;;;;;;4.90;100.00;100922.91;5074506;28;20486;-47
2023/12/30 05:59:59;;;;;;;14.93;1.98;;;;;;;4.89;100.00;100922.97;5074398;28;20147;-46
2023/12/30 06:02:27;;;;;;;10.23;2.00;;;;;;;4.87;100.00;100937.84;5074393;28;20406;-47
2023/12/30 06:04:56;;;;;;;11.70;2.45;;;;;;;4.88;100.00;100934.31;5074062;28;20144;-46
2023/12/30 06:07:26;;;;;;;10.38;2.20;;;;;;;4.87;100.00;100933.47;5074007;28;20052;-46
2023/12/30 06:09:54;;;;;;;12.32;1.95;;;;;;;4.92;100.00;100935.88;5074187;28;20057;-46
2023/12/30 06:12:23;;;;;;;9.02;2.40;;;;;;;4.89;100.00;100938.63;5074072;28;20044;-47
2023/12/30 06:14:51;;;;;;;9.93;2.10;;;;;;;4.89;100.00;100938.63;5072471;28;20037;-47
2023/12/30 06:17:20;;;;;;;10.93;2.03;;;;;;;4.89;100.00;100942.09;5072669;28;20044;-46
2023/12/30 06:19:51;;;;;;;10.15;1.90;;;;;;;4.90;100.00;100938.56;5071053;28;20047;-47
2023/12/30 06:22:20;;;;;;;15.60;2.20;;;;;;;4.91;100.00;100945.47;5070972;28;20483;-46
2023/12/30 06:24:49;;;;;;;14.63;2.47;;;;;;;4.92;100.00;100948.91;5071393;28;20044;-46
2023/12/30 06:27:20;;;;;;;8.57;1.77;;;;;;;4.95;100.00;100942.72;5071356;28;20468;-46
2023/12/30 06:29:49;;;;;;;9.25;2.08;;;;;;;4.97;100.00;100946.16;5073030;28;20438;-46
2023/12/30 06:32:17;;;;;;;10.23;2.08;;;;;;;4.98;100.00;100951.28;5072167;28;20487;-46
2023/12/30 06:34:45;;;;;;;13.43;2.28;;;;;;;4.97;100.00;100957.41;5071167;28;20046;-48
2023/12/30 06:37:13;;;;;;;15.35;2.38;;;;;;;4.89;100.00;100944.69;5071596;28;20066;-46
2023/12/30 06:39:41;;;;;;;11.32;2.20;;;;;;;4.93;100.00;100960.22;5071280;28;20399;-47
2023/12/30 06:42:13;;;;;;;13.80;2.78;;;;;;;4.90;100.00;100956.81;5068842;28;20044;-45
2023/12/30 06:44:42;;;;;;;15.13;3.13;;;;;;;4.91;100.00;100955.06;5071082;28;20518;-50
2023/12/30 06:47:12;;;;;;;11.10;2.33;;;;;;;4.94;100.00;100964.53;5072703;28;20399;-46
2023/12/30 06:49:41;;;;;;;17.58;3.00;;;;;;;4.99;100.00;100971.25;5071720;28;20085;-49
2023/12/30 06:52:09;;;;;;;11.38;3.03;;;;;;;4.96;100.00;100973.94;5072398;28;20040;-50
2023/12/30 06:54:37;;;;;;;12.80;2.72;;;;;;;4.98;100.00;100977.34;5071521;28;20071;-48
2023/12/30 06:57:05;;;;;;;10.75;2.78;;;;;;;4.96;100.00;100973.94;5071967;28;20043;-48
2023/12/30 06:59:35;;;;;;;10.55;3.35;;;;;;;4.93;100.00;100975.84;5073184;28;20043;-50
2023/12/30 07:02:03;;;;;;;14.68;2.92;;;;;;;4.93;100.00;100975.84;5073149;28;20043;-51
2023/12/30 07:04:32;;;;;;;10.20;2.55;;;;;;;4.91;100.00;100978.53;5072998;28;20036;-47
2023/12/30 07:07:00;;;;;;;13.02;3.28;;;;;;;4.91;100.00;100984.56;5072377;28;20091;-46
2023/12/30 07:09:28;;;;;;;14.98;3.85;;;;;;;4.91;100.00;100987.19;5071371;28;20044;-46
2023/12/30 07:11:56;;;;;;;12.57;2.67;;;;;;;4.93;100.00;100978.44;5071770;28;20496;-46
2023/12/30 07:14:25;;;;;;;10.63;2.95;;;;;;;4.93;100.00;100986.28;5071308;28;20037;-47
2023/12/30 07:16:57;;;;;;;14.15;3.03;;;;;;;4.93;100.00;100984.50;5071098;28;20037;-48
2023/12/30 07:19:26;;;;;;;12.68;3.20;;;;;;;4.90;100.00;100988.06;5071365;28;20541;-45
2023/12/30 07:21:54;;;;;;;15.23;2.75;;;;;;;4.90;100.00;100980.25;5071423;28;20044;-45
2023/12/30 07:24:22;;;;;;;14.55;2.67;;;;;;;4.88;100.00;100983.81;5071079;28;20435;-47
2023/12/30 07:26:50;;;;;;;14.18;2.90;;;;;;;4.85;100.00;100994.38;5071499;28;20051;-45
2023/12/30 07:29:19;;;;;;;16.40;2.75;;;;;;;4.81;100.00;101000.63;5070978;28;20063;-48
2023/12/30 07:31:48;;;;;;;14.15;2.58;;;;;;;4.80;100.00;100997.19;5071025;28;20435;-46
2023/12/30 07:34:18;;;;;;;14.90;2.55;;;;;;;4.80;100.00;101002.38;5071147;28;20040;-46
2023/12/30 07:36:47;;;;;;;15.65;2.55;;;;;;;4.80;100.00;101005.00;5071141;28;20090;-47
2023/12/30 07:39:16;;;;;;;13.68;3.00;;;;;;;4.79;100.00;101008.50;5070176;28;20115;-46
2023/12/30 07:41:53;;;;;;;10.48;2.42;;;;;;;4.79;100.00;101007.66;5067794;28;20048;-47
2023/12/30 07:44:48;;;;;;;15.18;2.85;;;;;;;4.76;100.00;101002.53;4991250;28;20478;-47
2023/12/30 07:47:16;;;;;;;17.88;2.60;;;;;;;4.75;100.00;100999.09;5008388;28;20102;-46
2023/12/30 07:49:45;;;;;;;12.55;2.40;;;;;;;4.76;100.00;101011.22;5008292;28;20054;-49
2023/12/30 07:52:14;;;;;;;15.38;2.50;;;;;;;4.73;100.00;101016.53;5006989;28;20082;-48
2023/12/30 07:54:42;;;;;;;16.08;2.95;;;;;;;4.72;100.00;101020.91;5008880;28;20050;-49
2023/12/30 07:57:10;;;;;;;13.95;2.63;;;;;;;4.74;100.00;101024.31;5008866;28;20054;-50
2023/12/30 07:59:41;;;;;;;14.35;2.97;;;;;;;4.72;100.00;101028.72;5008064;28;20052;-49
2023/12/30 08:02:10;;;;;;;16.33;3.83;;;;;;;4.74;100.00;101033.88;5004034;28;20127;-48
2023/12/30 08:04:38;;;;;;;16.42;3.38;;;;;;;4.72;100.00;101030.50;5004119;28;20041;-49
2023/12/30 08:07:07;;;;;;;13.77;2.78;;;;;;;4.71;100.00;101034.84;5008686;28;20069;-46
2023/12/30 08:09:37;;;;;;;12.30;2.95;;;;;;;4.72;100.00;101040.91;5008913;28;20125;-46
2023/12/30 08:12:07;;;;;;;15.25;3.13;;;;;;;4.75;100.00;101048.63;5006387;28;20054;-46
2023/12/30 08:14:37;;;;;;;13.13;2.97;;;;;;;4.76;100.00;101045.09;5008907;28;20050;-47
2023/12/30 08:17:06;;;;;;;13.43;3.08;;;;;;;4.77;100.00;101044.19;5002870;28;20128;-46
2023/12/30 08:19:34;;;;;;;12.13;2.60;;;;;;;4.81;100.00;101040.53;4984610;28;20045;-49
2023/12/30 08:22:03;;;;;;;10.77;2.55;;;;;;;4.85;100.00;101042.16;5067333;28;20056;-47
2023/12/30 08:24:32;;;;;;;13.43;3.22;;;;;;;4.86;100.00;101036.00;5070585;28;20804;-47
2023/12/30 08:27:01;;;;;;;13.80;2.90;;;;;;;4.93;100.00;101044.44;5071609;28;20079;-47
2023/12/30 08:29:29;;;;;;;16.65;2.80;;;;;;;4.93;100.00;101049.66;5071571;28;20048;-48
2023/12/30 08:31:57;;;;;;;21.30;3.72;;;;;;;4.93;100.00;101051.44;5071579;28;20060;-48
2023/12/30 08:34:27;;;;;;;14.10;3.03;;;;;;;4.99;100.00;101057.25;5071677;28;20146;-46
2023/12/30 08:36:56;;;;;;;15.25;3.00;;;;;;;5.01;100.00;101060.66;5071368;28;20541;-47
2023/12/30 08:39:25;;;;;;;13.60;2.63;;;;;;;5.03;100.00;101063.19;5071172;28;20075;-46
2023/12/30 08:41:55;;;;;;;15.95;2.88;;;;;;;5.04;100.00;101059.69;5071213;28;20106;-46
2023/12/30 08:44:23;;;;;;;12.32;2.65;;;;;;;5.07;100.00;101064.78;5071077;28;20526;-48
2023/12/30 08:46:53;;;;;;;14.65;3.38;;;;;;;5.08;100.00;101069.94;5070944;28;20120;-46
2023/12/30 08:49:22;;;;;;;16.08;2.85;;;;;;;5.15;100.00;101057.50;5070917;28;20067;-57
2023/12/30 08:51:50;;;;;;;14.52;2.92;;;;;;;5.20;100.00;101054.72;5070979;28;20500;-57
2023/12/30 08:54:21;;;;;;;13.48;2.45;;;;;;;5.24;100.00;101070.19;5071204;28;20361;-57
2023/12/30 08:56:53;;;;;;;15.60;2.95;;;;;;;5.27;100.00;101074.44;5071587;28;20052;-57
2023/12/30 08:59:24;;;;;;;14.02;2.95;;;;;;;5.32;100.00;101069.88;5070343;28;20461;-57
2023/12/30 09:01:52;;;;;;;12.98;2.80;;;;;;;5.35;100.00;101068.94;5070696;28;20121;-56
2023/12/30 09:04:20;;;;;;;11.20;2.22;;;;;;;5.37;100.00;101073.19;5072201;28;20037;-57
2023/12/30 09:06:48;;;;;;;15.02;4.10;;;;;;;5.39;100.00;101071.34;5070697;28;20147;-57
2023/12/30 09:09:17;;;;;;;12.38;3.00;;;;;;;5.42;100.00;101072.97;5075369;28;20059;-58
2023/12/30 09:11:48;;;;;;;9.80;2.20;;;;;;;5.45;100.00;101080.69;5075811;28;20452;-57
2023/12/30 09:14:16;;;;;;;15.80;2.58;;;;;;;5.49;100.00;101082.25;5074986;28;20090;-57
2023/12/30 09:16:46;;;;;;;12.13;2.65;;;;;;;5.51;100.00;101095.25;5073478;28;20503;-57
2023/12/30 09:19:14;;;;;;;15.80;2.45;;;;;;;5.54;100.00;101097.75;5075040;28;20388;-57
2023/12/30 09:21:43;;;;;;;12.68;2.95;;;;;;;5.58;100.00;101087.09;5074934;28;20045;-57
2023/12/30 09:24:11;;;;;;;15.80;3.40;;;;;;;5.59;100.00;101094.03;5074962;28;20040;-58
2023/12/30 09:26:39;;;;;;;18.27;3.90;;;;;;;5.60;100.00;101097.47;5074853;28;20439;-57
2023/12/30 09:29:08;;;;;;;17.70;4.03;;;;;;;5.61;100.00;101093.97;5074834;28;20488;-58
2023/12/30 09:31:36;;;;;;;21.10;5.70;;;;;;;5.65;100.00;101097.31;5074809;28;20048;-58
2023/12/30 09:34:06;;;;;;;15.45;2.80;;;;;;;5.68;100.00;101103.22;5074751;28;20143;-57
2023/12/30 09:36:35;;;;;;;10.48;1.90;;;;;;;5.66;100.00;101102.47;5074688;28;20449;-57
2023/12/30 09:39:05;;;;;;;13.65;2.33;;;;;;;5.69;100.00;101104.09;5074625;28;20056;-57
2023/12/30 09:41:36;;;;;;;13.27;2.40;;;;;;;5.70;100.00;101104.03;5073189;28;20052;-57
2023/12/30 09:44:04;;;;;;;13.82;2.70;;;;;;;5.73;100.00;101105.69;5074520;28;20452;-57
2023/12/30 09:46:33;;;;;;;14.55;3.60;;;;;;;5.76;100.00;101113.38;5074458;28;20040;-57
2023/12/30 09:49:03;;;;;;;21.15;2.70;;;;;;;5.80;100.00;101103.66;5074465;28;20046;-57
2023/12/30 09:51:33;;;;;;;14.43;2.33;;;;;;;5.83;100.00;101109.59;5074451;28;20056;-57
2023/12/30 09:54:02;;;;;;;14.55;2.42;;;;;;;5.86;100.00;101106.88;5074188;28;20036;-57
2023/12/30 09:56:31;;;;;;;15.48;2.60;;;;;;;5.91;100.00;101114.50;5074196;28;20040;-58
2023/12/30 09:59:00;;;;;;;13.43;2.13;;;;;;;5.92;100.00;101117.06;5074296;28;20044;-58
2023/12/30 10:01:30;;;;;;;12.55;2.47;;;;;;;5.98;100.00;101115.13;5074376;28;20048;-57
2023/12/30 10:03:58;;;;;;;13.00;2.70;;;;;;;6.07;100.00;101118.22;5072806;28;20143;-58
2023/12/30 10:06:27;;;;;;;14.20;2.67;;;;;;;6.08;100.00;101111.22;5074077;28;20055;-58
2023/12/30 10:08:57;;;;;;;11.85;2.03;;;;;;;6.14;100.00;101123.19;5072321;28;20056;-57
2023/12/30 10:11:25;;;;;;;14.48;2.25;;;;;;;6.17;100.00;101115.22;5073280;28;20051;-57
2023/12/30 10:13:54;;;;;;;12.32;2.50;;;;;;;6.18;100.00;101120.38;5068629;28;20388;-58
2023/12/30 10:16:22;;;;;;;10.57;2.90;;;;;;;6.21;100.00;101114.16;5072014;28;20495;-57
2023/12/30 10:18:52;;;;;;;17.00;2.75;;;;;;;6.25;100.00;101107.91;5073243;28;20400;-58
2023/12/30 10:21:21;;;;;;;17.25;2.45;;;;;;;6.25;100.00;101108.75;5072289;28;20515;-57
2023/12/30 10:23:53;;;;;;;14.40;2.70;;;;;;;6.29;100.00;101103.41;5073838;28;20045;-57
2023/12/30 10:26:23;;;;;;;11.23;2.20;;;;;;;6.35;100.00;101095.28;5073811;28;20115;-57
2023/12/30 10:28:52;;;;;;;11.35;2.03;;;;;;;6.36;100.00;101099.59;5073669;28;20525;-57
2023/12/30 10:31:20;;;;;;;12.20;2.58;;;;;;;6.39;100.00;101094.25;5073881;28;20149;-57
2023/12/30 10:33:49;;;;;;;14.10;2.60;;;;;;;6.41;100.00;101098.47;5073467;28;20123;-57
2023/12/30 10:36:19;;;;;;;15.80;2.42;;;;;;;6.45;100.00;101100.97;5073473;28;20040;-57
2023/12/30 10:38:52;;;;;;;14.52;2.88;;;;;;;6.48;100.00;101103.47;5073528;28;20048;-57
2023/12/30 10:41:20;;;;;;;13.15;2.33;;;;;;;6.50;100.00;101112.06;5072340;28;20072;-57
2023/12/30 10:43:50;;;;;;;18.63;3.28;;;;;;;6.53;100.00;101117.16;5073475;28;20112;-57
2023/12/30 10:46:19;;;;;;;11.52;4.70;;;;;;;6.58;100.00;101120.41;5073011;28;20476;-57
2023/12/30 10:48:55;;;;;;;18.00;3.53;;;;;;;6.60;100.00;101108.97;5070450;28;20048;-57
2023/12/30 10:51:26;;;;;;;13.20;2.67;;;;;;;6.65;100.00;101111.38;5069708;28;20148;-58
2023/12/30 10:54:04;;;;;;;11.35;3.25;;;;;;;6.73;100.00;101105.81;5073673;28;20045;-58
2023/12/30 10:56:39;;;;;;;16.40;3.28;;;;;;;6.74;100.00;101110.13;5073034;28;20491;-57
2023/12/30 10:59:12;;;;;;;20.48;3.28;;;;;;;6.78;100.00;101109.06;5073147;28;20037;-57
2023/12/30 11:01:41;;;;;;;14.02;3.05;;;;;;;6.79;100.00;101107.31;5072986;28;20064;-58
2023/12/30 11:04:12;;;;;;;16.52;3.95;;;;;;;6.84;100.00;101102.72;5073195;28;20051;-57
2023/12/30 11:06:49;;;;;;;20.27;3.25;;;;;;;6.83;100.00;101104.50;5072709;28;20423;-57
2023/12/30 11:09:19;;;;;;;13.65;3.17;;;;;;;6.85;100.00;101094.81;5072915;28;20391;-57
2023/12/30 11:11:51;;;;;;;18.60;3.80;;;;;;;6.91;100.00;101088.44;5072803;28;20130;-57
2023/12/30 11:14:21;;;;;;;13.48;2.92;;;;;;;6.89;100.00;101078.06;5069070;28;20131;-57
2023/12/30 11:16:51;;;;;;;16.00;3.00;;;;;;;6.90;100.00;101082.38;5070929;28;20076;-58
2023/12/30 11:19:29;;;;;;;15.55;2.92;;;;;;;6.94;100.00;101075.25;5071558;28;20079;-58
2023/12/30 11:21:59;;;;;;;15.27;2.78;;;;;;;6.97;100.00;101080.34;5072679;28;20052;-58
2023/12/30 11:24:29;;;;;;;16.58;2.80;;;;;;;7.00;100.00;101079.34;5072016;28;20388;-58
2023/12/30 11:26:57;;;;;;;15.32;2.97;;;;;;;7.02;100.00;101078.34;5072400;28;20029;-57
2023/12/30 11:29:28;;;;;;;16.73;3.33;;;;;;;7.06;100.00;101068.56;5072447;28;20048;-58